createdAt,value
2018-07-22T00:00:06.815Z,5.90
2018-07-22T00:02:34.953Z,6.37
2018-07-22T00:05:03.537Z,6.20
2018-07-22T00:07:31.776Z,6.37
2018-07-22T00:10:00.006Z,5.90
2018-07-22T00:12:28.139Z,5.67
2018-07-22T00:14:56.868Z,5.80
2018-07-22T00:17:24.953Z,6.53
2018-07-22T00:19:53.045Z,6.07
2018-07-22T00:22:21.212Z,5.83
2018-07-22T00:24:49.335Z,5.93
2018-07-22T00:27:17.268Z,5.33
2018-07-22T00:29:45.441Z,5.80
2018-07-22T00:32:13.572Z,5.77
2018-07-22T00:34:41.508Z,6.00
2018-07-22T00:37:09.613Z,5.70
2018-07-22T00:39:37.706Z,5.90
2018-07-22T00:42:05.859Z,5.57
2018-07-22T00:44:34.034Z,5.53
2018-07-22T00:47:02.320Z,6.27
2018-07-22T00:49:30.467Z,5.90
2018-07-22T00:51:58.590Z,5.87
2018-07-22T00:54:26.773Z,5.40
2018-07-22T00:56:54.854Z,5.83
2018-07-22T00:59:22.977Z,5.80
2018-07-22T01:01:51.089Z,5.77
2018-07-22T01:04:19.169Z,6.00
2018-07-22T01:06:47.275Z,6.27
2018-07-22T01:09:15.386Z,5.83
2018-07-22T01:11:43.567Z,5.90
2018-07-22T01:14:11.629Z,5.90
2018-07-22T01:16:39.741Z,6.07
2018-07-22T01:19:07.852Z,5.60
2018-07-22T01:21:35.988Z,6.23
2018-07-22T01:24:04.121Z,5.80
2018-07-22T01:26:32.294Z,6.07
2018-07-22T01:29:00.396Z,5.73
2018-07-22T01:31:28.520Z,5.87
2018-07-22T01:33:56.626Z,5.57
2018-07-22T01:36:24.749Z,5.87
2018-07-22T01:38:52.858Z,5.60
2018-07-22T01:41:20.956Z,5.73
2018-07-22T01:43:49.033Z,5.33
2018-07-22T01:46:17.117Z,5.50
2018-07-22T01:48:45.276Z,5.70
2018-07-22T01:51:13.349Z,5.90
2018-07-22T01:53:41.461Z,5.67
2018-07-22T01:56:09.568Z,5.03
2018-07-22T01:58:37.460Z,6.10
2018-07-22T02:01:05.571Z,5.47
2018-07-22T02:03:33.692Z,5.57
2018-07-22T02:06:01.844Z,6.03
2018-07-22T02:08:29.957Z,5.93
2018-07-22T02:10:58.088Z,5.87
2018-07-22T02:13:26.289Z,5.63
2018-07-22T02:15:54.358Z,5.10
2018-07-22T02:18:22.490Z,5.17
2018-07-22T02:20:50.608Z,5.67
2018-07-22T02:23:18.681Z,5.07
2018-07-22T02:25:46.765Z,5.67
2018-07-22T02:28:14.885Z,4.93
2018-07-22T02:30:42.955Z,5.40
2018-07-22T02:33:11.070Z,5.43
2018-07-22T02:35:39.232Z,5.20
2018-07-22T02:38:07.172Z,5.00
2018-07-22T02:40:35.269Z,5.27
2018-07-22T02:43:03.368Z,5.73
2018-07-22T02:45:31.501Z,5.30
2018-07-22T02:47:59.614Z,4.80
2018-07-22T02:50:27.730Z,5.70
2018-07-22T02:52:55.824Z,5.53
2018-07-22T02:55:23.913Z,5.47
2018-07-22T02:57:52.537Z,5.27
2018-07-22T03:00:20.635Z,5.60
2018-07-22T03:02:48.729Z,5.57
2018-07-22T03:05:16.824Z,5.60
2018-07-22T03:07:44.921Z,5.43
2018-07-22T03:10:13.007Z,5.40
2018-07-22T03:12:41.141Z,4.93
2018-07-22T03:15:09.223Z,5.40
2018-07-22T03:17:37.309Z,5.37
2018-07-22T03:20:05.476Z,5.70
2018-07-22T03:22:33.621Z,5.47
2018-07-22T03:25:01.773Z,5.07
2018-07-22T03:27:29.915Z,4.60
2018-07-22T03:29:57.852Z,5.23
2018-07-22T03:32:25.950Z,5.67
2018-07-22T03:34:54.062Z,5.43
2018-07-22T03:37:22.163Z,5.20
2018-07-22T03:39:50.276Z,5.00
2018-07-22T03:42:18.605Z,5.00
2018-07-22T03:44:46.749Z,5.40
2018-07-22T03:47:14.884Z,5.13
2018-07-22T03:49:42.960Z,4.70
2018-07-22T03:52:11.071Z,5.27
2018-07-22T03:54:39.009Z,5.33
2018-07-22T03:57:07.128Z,5.27
2018-07-22T03:59:35.301Z,5.30
2018-07-22T04:02:03.416Z,5.07
2018-07-22T04:04:31.657Z,4.83
2018-07-22T04:06:59.819Z,5.00
2018-07-22T04:09:27.840Z,5.07
2018-07-22T04:11:55.929Z,5.03
2018-07-22T04:14:23.995Z,5.27
2018-07-22T04:16:52.137Z,4.60
2018-07-22T04:19:20.216Z,4.83
2018-07-22T04:21:48.339Z,4.77
2018-07-22T04:24:16.452Z,4.70
2018-07-22T04:26:44.553Z,5.00
2018-07-22T04:29:12.667Z,5.47
2018-07-22T04:31:40.862Z,4.90
2018-07-22T04:34:08.964Z,4.50
2018-07-22T04:36:37.123Z,4.93
2018-07-22T04:39:07.645Z,4.83
2018-07-22T04:41:35.770Z,4.90
2018-07-22T04:44:04.005Z,5.03
2018-07-22T04:46:32.236Z,5.43
2018-07-22T04:49:00.369Z,4.93
2018-07-22T04:51:28.511Z,4.47
2018-07-22T04:53:56.584Z,4.67
2018-07-22T04:56:24.678Z,5.20
2018-07-22T04:58:52.759Z,4.70
2018-07-22T05:01:20.892Z,4.70
2018-07-22T05:03:49.082Z,4.77
2018-07-22T05:06:17.152Z,4.87
2018-07-22T05:08:45.382Z,5.10
2018-07-22T05:11:13.461Z,4.90
2018-07-22T05:13:41.529Z,5.20
2018-07-22T05:16:09.626Z,4.60
2018-07-22T05:18:37.523Z,4.60
2018-07-22T05:21:05.680Z,5.17
2018-07-22T05:23:33.796Z,4.53
2018-07-22T05:26:01.941Z,4.77
2018-07-22T05:28:30.129Z,4.63
2018-07-22T05:30:58.317Z,5.00
2018-07-22T05:33:26.464Z,4.43
2018-07-22T05:35:54.581Z,5.20
2018-07-22T05:38:22.703Z,5.10
2018-07-22T05:40:51.162Z,5.20
2018-07-22T05:43:19.260Z,4.80
2018-07-22T05:45:47.400Z,4.70
2018-07-22T05:48:15.477Z,5.13
2018-07-22T05:50:43.557Z,5.23
2018-07-22T05:53:11.649Z,5.20
2018-07-22T05:55:39.757Z,5.00
2018-07-22T05:58:07.850Z,4.93
2018-07-22T06:00:35.960Z,4.90
2018-07-22T06:03:04.396Z,4.77
2018-07-22T06:05:32.484Z,4.80
2018-07-22T06:08:00.567Z,4.60
2018-07-22T06:10:28.886Z,4.90
2018-07-22T06:12:57.137Z,5.10
2018-07-22T06:15:25.477Z,4.50
2018-07-22T06:17:53.546Z,4.67
2018-07-22T06:20:21.621Z,4.50
2018-07-22T06:22:49.766Z,4.43
2018-07-22T06:25:17.895Z,5.00
2018-07-22T06:27:45.983Z,4.43
2018-07-22T06:30:14.101Z,4.67
2018-07-22T06:32:42.201Z,4.90
2018-07-22T06:35:10.388Z,4.60
2018-07-22T06:37:38.430Z,4.90
2018-07-22T06:40:06.587Z,4.50
2018-07-22T06:42:34.846Z,5.23
2018-07-22T06:45:02.968Z,4.83
2018-07-22T06:47:31.072Z,4.63
2018-07-22T06:49:59.313Z,4.30
2018-07-22T06:52:27.413Z,4.80
2018-07-22T06:54:55.520Z,4.67
2018-07-22T06:57:23.621Z,4.53
2018-07-22T06:59:52.036Z,4.80
2018-07-22T07:02:20.407Z,4.60
2018-07-22T07:04:48.602Z,5.03
2018-07-22T07:07:17.028Z,4.90
2018-07-22T07:09:45.116Z,4.40
2018-07-22T07:12:13.360Z,4.40
2018-07-22T07:14:41.498Z,5.00
2018-07-22T07:17:09.427Z,4.53
2018-07-22T07:19:37.707Z,4.77
2018-07-22T07:22:06.135Z,4.70
2018-07-22T07:24:34.254Z,5.40
2018-07-22T07:27:02.586Z,5.10
2018-07-22T07:29:30.849Z,5.07
2018-07-22T07:31:59.020Z,4.27
2018-07-22T07:34:27.203Z,4.60
2018-07-22T07:36:55.288Z,6.33
2018-07-22T07:39:23.441Z,4.70
2018-07-22T07:41:51.512Z,4.73
2018-07-22T07:44:19.853Z,4.80
2018-07-22T07:46:47.952Z,4.90
2018-07-22T07:49:16.082Z,5.03
2018-07-22T07:51:44.201Z,4.63
2018-07-22T07:54:12.448Z,4.80
2018-07-22T07:56:40.573Z,4.67
2018-07-22T07:59:08.708Z,5.07
2018-07-22T08:01:36.879Z,4.83
2018-07-22T08:04:05.504Z,5.13
2018-07-22T08:06:33.658Z,5.20
2018-07-22T08:09:01.859Z,4.83
2018-07-22T08:11:30.122Z,4.40
2018-07-22T08:13:58.304Z,9.03
2018-07-22T08:16:26.437Z,4.97
2018-07-22T08:18:56.439Z,4.70
2018-07-22T08:21:23.029Z,19.17
2018-07-22T08:23:51.195Z,24.57
2018-07-22T08:26:19.341Z,23.00
2018-07-22T08:29:24.550Z,23.50
2018-07-22T08:31:52.649Z,25.73
2018-07-22T08:34:21.032Z,28.63
2018-07-22T08:36:49.358Z,28.53
2018-07-22T08:39:19.036Z,28.33
2018-07-22T08:41:47.332Z,30.30
2018-07-22T08:44:15.477Z,25.70
2018-07-22T08:46:43.688Z,38.80
2018-07-22T08:49:11.886Z,37.87
2018-07-22T08:51:39.939Z,39.73
2018-07-22T08:54:08.136Z,29.97
2018-07-22T08:56:36.317Z,31.20
2018-07-22T08:59:04.977Z,36.67
2018-07-22T09:01:33.192Z,36.90
2018-07-22T09:04:01.360Z,31.03
2018-07-22T09:06:30.132Z,25.67
2018-07-22T09:08:58.043Z,32.53
2018-07-22T09:11:26.592Z,22.90
2018-07-22T09:13:55.417Z,20.13
2018-07-22T09:16:23.526Z,26.90
2018-07-22T09:18:51.630Z,32.43
2018-07-22T09:21:19.992Z,20.40
2018-07-22T09:23:48.093Z,19.43
2018-07-22T09:26:16.196Z,14.53
2018-07-22T09:28:44.303Z,19.50
2018-07-22T09:31:12.402Z,14.33
2018-07-22T09:33:40.497Z,14.40
2018-07-22T09:36:08.431Z,12.47
2018-07-22T09:38:36.591Z,19.17
2018-07-22T09:41:04.737Z,12.57
2018-07-22T09:43:32.900Z,20.77
2018-07-22T09:46:01.077Z,15.13
2018-07-22T09:48:29.261Z,18.87
2018-07-22T09:50:57.432Z,14.37
2018-07-22T09:53:25.550Z,19.17
2018-07-22T09:55:53.666Z,20.03
2018-07-22T09:58:21.810Z,15.27
2018-07-22T10:00:55.642Z,14.53
2018-07-22T10:03:24.749Z,13.73
2018-07-22T10:05:52.993Z,12.20
2018-07-22T10:08:21.236Z,11.03
2018-07-22T10:10:49.380Z,14.43
2018-07-22T10:13:17.505Z,18.13
2018-07-22T10:15:45.687Z,18.00
2018-07-22T10:18:13.887Z,14.50
2018-07-22T10:20:42.017Z,12.83
2018-07-22T10:23:10.255Z,27.40
2018-07-22T10:25:38.365Z,12.80
2018-07-22T10:28:06.541Z,12.03
2018-07-22T10:30:34.717Z,16.20
2018-07-22T10:33:02.848Z,16.83
2018-07-22T10:35:31.016Z,13.00
2018-07-22T10:37:59.184Z,15.53
2018-07-22T10:40:27.284Z,17.40
2018-07-22T10:42:55.436Z,21.07
2018-07-22T10:45:23.660Z,21.90
2018-07-22T10:47:51.741Z,19.87
2018-07-22T10:50:19.849Z,18.73
2018-07-22T10:52:47.961Z,13.70
2018-07-22T10:55:16.091Z,20.43
2018-07-22T10:57:44.208Z,14.13
2018-07-22T11:00:12.298Z,22.13
2018-07-22T11:02:40.398Z,14.80
2018-07-22T11:05:09.317Z,10.90
2018-07-22T11:07:37.469Z,19.23
2018-07-22T11:10:06.177Z,18.50
2018-07-22T11:12:34.921Z,10.47
2018-07-22T11:15:03.217Z,12.50
2018-07-22T11:17:31.434Z,12.80
2018-07-22T11:19:59.630Z,12.43
2018-07-22T11:22:27.738Z,11.43
2018-07-22T11:24:55.886Z,11.40
2018-07-22T11:27:23.981Z,13.07
2018-07-22T11:29:52.167Z,10.73
2018-07-22T11:32:20.250Z,8.73
2018-07-22T11:34:48.360Z,9.50
2018-07-22T11:37:16.468Z,24.53
2018-07-22T11:39:44.607Z,11.17
2018-07-22T11:42:12.820Z,10.30
2018-07-22T11:44:40.944Z,8.13
2018-07-22T11:47:08.846Z,15.67
2018-07-22T11:49:37.020Z,11.10
2018-07-22T11:52:05.181Z,9.87
2018-07-22T11:54:33.304Z,10.13
2018-07-22T11:57:01.565Z,8.63
2018-07-22T11:59:29.784Z,10.00
2018-07-22T12:01:58.026Z,10.10
2018-07-22T12:04:26.293Z,9.27
2018-07-22T12:06:54.383Z,8.57
2018-07-22T12:09:22.487Z,13.50
2018-07-22T12:11:50.600Z,9.07
2018-07-22T12:14:18.697Z,9.43
2018-07-22T12:16:46.832Z,10.23
2018-07-22T12:19:14.988Z,9.20
2018-07-22T12:21:43.096Z,8.97
2018-07-22T12:24:11.210Z,8.63
2018-07-22T12:26:39.362Z,10.77
2018-07-22T12:29:07.492Z,9.70
2018-07-22T12:31:35.693Z,9.73
2018-07-22T12:34:03.706Z,9.80
2018-07-22T12:36:31.828Z,10.40
2018-07-22T12:39:00.127Z,11.80
2018-07-22T12:41:28.356Z,11.33
2018-07-22T12:43:57.442Z,11.47
2018-07-22T12:46:25.687Z,11.57
2018-07-22T12:48:53.836Z,7.47
2018-07-22T12:51:21.977Z,9.57
2018-07-22T12:53:50.175Z,7.83
2018-07-22T12:56:18.237Z,8.60
2018-07-22T12:58:46.383Z,11.13
2018-07-22T13:01:14.467Z,9.30
2018-07-22T13:03:42.553Z,7.83
2018-07-22T13:06:10.666Z,8.97
2018-07-22T13:08:39.025Z,12.37
2018-07-22T13:11:07.161Z,12.73
2018-07-22T13:13:35.570Z,7.23
2018-07-22T13:16:03.861Z,9.03
2018-07-22T13:18:32.011Z,9.43
2018-07-22T13:21:00.151Z,10.10
2018-07-22T13:23:28.304Z,8.70
2018-07-22T13:25:57.373Z,8.53
2018-07-22T13:28:25.445Z,6.63
2018-07-22T13:30:53.528Z,10.30
2018-07-22T13:33:21.618Z,8.10
2018-07-22T13:35:49.696Z,13.93
2018-07-22T13:38:17.898Z,12.67
2018-07-22T13:40:45.948Z,10.33
2018-07-22T13:43:14.070Z,10.67
2018-07-22T13:45:42.178Z,8.07
2018-07-22T13:48:10.330Z,9.87
2018-07-22T13:50:38.513Z,10.03
2018-07-22T13:53:06.799Z,10.37
2018-07-22T13:55:34.949Z,7.93
2018-07-22T13:58:03.109Z,8.07
2018-07-22T14:00:33.203Z,14.60
2018-07-22T14:03:01.170Z,11.67
2018-07-22T14:05:29.417Z,5.77
2018-07-22T14:07:57.541Z,9.40
2018-07-22T14:10:25.632Z,5.73
2018-07-22T14:12:53.709Z,6.27
2018-07-22T14:15:21.841Z,7.03
2018-07-22T14:17:50.016Z,4.87
2018-07-22T14:20:18.137Z,8.43
2018-07-22T14:22:46.252Z,7.73
2018-07-22T14:25:14.416Z,6.07
2018-07-22T14:27:42.539Z,11.13
2018-07-22T14:30:10.642Z,6.87
2018-07-22T14:32:38.748Z,5.40
2018-07-22T14:35:06.979Z,5.73
2018-07-22T14:37:35.278Z,9.33
2018-07-22T14:40:03.396Z,6.83
2018-07-22T14:42:31.536Z,5.97
2018-07-22T14:44:59.697Z,12.93
2018-07-22T14:47:27.826Z,12.60
2018-07-22T14:49:55.949Z,42.80
2018-07-22T14:52:24.049Z,13.43
2018-07-22T14:54:52.182Z,12.57
2018-07-22T14:57:20.288Z,10.17
2018-07-22T14:59:48.424Z,13.97
2018-07-22T15:02:16.540Z,8.43
2018-07-22T15:04:44.633Z,8.43
2018-07-22T15:07:12.731Z,4.53
2018-07-22T15:09:40.853Z,8.73
2018-07-22T15:12:09.101Z,8.83
2018-07-22T15:14:37.300Z,4.23
2018-07-22T15:17:05.568Z,6.50
2018-07-22T15:19:33.877Z,9.20
2018-07-22T15:22:02.231Z,6.07
2018-07-22T15:24:30.395Z,5.97
2018-07-22T15:26:58.719Z,13.70
2018-07-22T15:29:26.855Z,219.00
2018-07-22T15:31:54.850Z,110.30
2018-07-22T15:34:22.963Z,128.50
2018-07-22T15:36:51.108Z,94.17
2018-07-22T15:39:19.225Z,62.47
2018-07-22T15:41:47.351Z,58.47
2018-07-22T15:44:15.436Z,33.30
2018-07-22T15:46:43.589Z,56.50
2018-07-22T15:49:11.696Z,42.90
2018-07-22T15:51:39.836Z,36.20
2018-07-22T15:54:08.038Z,31.97
2018-07-22T15:56:36.296Z,30.03
2018-07-22T15:59:04.543Z,28.73
2018-07-22T16:01:32.689Z,25.70
2018-07-22T16:04:00.628Z,18.77
2018-07-22T16:06:28.822Z,77.23
2018-07-22T16:08:57.069Z,48.23
2018-07-22T16:11:25.230Z,18.17
2018-07-22T16:13:53.312Z,17.20
2018-07-22T16:16:21.538Z,17.97
2018-07-22T16:18:49.668Z,65.50
2018-07-22T16:21:17.819Z,59.03
2018-07-22T16:23:45.973Z,34.23
2018-07-22T16:26:14.108Z,22.17
2018-07-22T16:28:42.265Z,19.97
2018-07-22T16:31:10.590Z,12.87
2018-07-22T16:33:38.707Z,20.50
2018-07-22T16:36:06.917Z,12.87
2018-07-22T16:38:35.082Z,17.37
2018-07-22T16:41:03.285Z,16.80
2018-07-22T16:43:31.628Z,12.20
2018-07-22T16:45:59.892Z,14.67
2018-07-22T16:48:28.193Z,16.97
2018-07-22T16:50:56.336Z,13.40
2018-07-22T16:53:24.490Z,13.80
2018-07-22T16:55:52.619Z,11.70
2018-07-22T16:58:20.805Z,13.80
2018-07-22T17:00:48.924Z,8.57
2018-07-22T17:03:17.078Z,13.23
2018-07-22T17:05:45.148Z,10.37
2018-07-22T17:08:13.076Z,7.77
2018-07-22T17:10:41.168Z,8.57
2018-07-22T17:13:09.281Z,6.27
2018-07-22T17:15:37.407Z,12.20
2018-07-22T17:18:05.522Z,9.40
2018-07-22T17:20:33.815Z,7.90
2018-07-22T17:23:01.977Z,6.57
2018-07-22T17:25:30.120Z,11.93
2018-07-22T17:27:58.237Z,8.87
2018-07-22T17:30:26.392Z,11.70
2018-07-22T17:32:54.480Z,10.13
2018-07-22T17:35:22.585Z,9.10
2018-07-22T17:37:50.660Z,9.00
2018-07-22T17:40:18.631Z,6.70
2018-07-22T17:42:46.798Z,6.90
2018-07-22T17:45:14.876Z,8.57
2018-07-22T17:47:43.016Z,7.50
2018-07-22T17:50:11.111Z,6.10
2018-07-22T17:52:39.207Z,8.73
2018-07-22T17:55:08.077Z,8.33
2018-07-22T17:57:36.365Z,7.10
2018-07-22T18:00:05.109Z,4.17
2018-07-22T18:02:33.265Z,4.70
2018-07-22T18:05:01.424Z,4.13
2018-07-22T18:07:29.357Z,5.43
2018-07-22T18:09:57.472Z,5.40
2018-07-22T18:12:25.566Z,6.87
2018-07-22T18:14:53.684Z,5.13
2018-07-22T18:17:21.793Z,7.73
2018-07-22T18:19:49.966Z,9.63
2018-07-22T18:22:18.037Z,4.63
2018-07-22T18:24:46.108Z,4.57
2018-07-22T18:27:14.210Z,5.03
2018-07-22T18:29:42.317Z,4.13
2018-07-22T18:32:10.453Z,5.97
2018-07-22T18:34:38.587Z,3.77
2018-07-22T18:37:06.817Z,4.37
2018-07-22T18:39:34.871Z,4.60
2018-07-22T18:42:03.037Z,3.57
2018-07-22T18:44:31.272Z,5.30
2018-07-22T18:46:59.428Z,5.33
2018-07-22T18:49:27.529Z,4.60
2018-07-22T18:51:55.701Z,4.40
2018-07-22T18:54:23.807Z,5.47
2018-07-22T18:56:51.941Z,3.90
2018-07-22T18:59:20.152Z,4.00
2018-07-22T19:01:48.251Z,3.50
2018-07-22T19:04:16.360Z,5.10
2018-07-22T19:06:44.464Z,4.83
2018-07-22T19:09:12.656Z,5.53
2018-07-22T19:11:40.832Z,4.17
2018-07-22T19:14:09.004Z,3.50
2018-07-22T19:16:37.233Z,3.50
2018-07-22T19:19:05.470Z,5.73
2018-07-22T19:21:33.622Z,4.23
2018-07-22T19:24:01.754Z,4.47
2018-07-22T19:26:29.877Z,4.97
2018-07-22T19:28:58.000Z,3.30
2018-07-22T19:31:26.079Z,4.60
2018-07-22T19:33:54.177Z,3.57
2018-07-22T19:36:22.240Z,4.07
2018-07-22T19:38:50.570Z,5.60
2018-07-22T19:41:18.727Z,4.03
2018-07-22T19:43:46.860Z,3.77
2018-07-22T19:46:14.955Z,3.20
2018-07-22T19:48:43.045Z,4.03
2018-07-22T19:51:11.249Z,4.73
2018-07-22T19:53:39.410Z,3.50
2018-07-22T19:56:07.505Z,3.10
2018-07-22T19:58:35.585Z,4.97
2018-07-22T20:01:03.691Z,3.30
2018-07-22T20:03:31.907Z,2.93
2018-07-22T20:06:00.029Z,4.10
2018-07-22T20:08:28.153Z,4.17
2018-07-22T20:10:56.221Z,4.63
2018-07-22T20:13:24.303Z,3.87
2018-07-22T20:15:52.458Z,4.00
2018-07-22T20:18:20.558Z,4.40
2018-07-22T20:20:48.634Z,3.83
2018-07-22T20:23:16.740Z,3.57
2018-07-22T20:25:44.880Z,3.27
2018-07-22T20:28:12.974Z,3.23
2018-07-22T20:30:41.064Z,5.17
2018-07-22T20:33:09.199Z,3.80
2018-07-22T20:35:37.563Z,3.43
2018-07-22T20:38:05.824Z,2.90
2018-07-22T20:40:33.968Z,3.60
2018-07-22T20:43:02.172Z,3.00
2018-07-22T20:45:30.331Z,3.00
2018-07-22T20:47:59.584Z,3.30
2018-07-22T20:50:27.726Z,3.47
2018-07-22T20:52:55.808Z,3.27
2018-07-22T20:55:23.974Z,3.20
2018-07-22T20:57:52.098Z,3.73
2018-07-22T21:00:20.192Z,3.97
2018-07-22T21:02:48.373Z,3.13
2018-07-22T21:05:16.495Z,3.47
2018-07-22T21:07:44.448Z,3.30
2018-07-22T21:10:12.610Z,3.40
2018-07-22T21:12:53.481Z,4.20
2018-07-22T21:15:21.634Z,3.20
2018-07-22T21:17:50.692Z,3.67
2018-07-22T21:20:19.624Z,3.40
2018-07-22T21:22:47.717Z,3.60
2018-07-22T21:25:16.317Z,3.43
2018-07-22T21:27:44.639Z,3.43
2018-07-22T21:30:13.376Z,3.73
2018-07-22T21:32:41.593Z,3.73
2018-07-22T21:35:09.869Z,3.50
2018-07-22T21:37:38.276Z,3.33
2018-07-22T21:40:06.614Z,3.53
2018-07-22T21:42:34.809Z,3.37
2018-07-22T21:45:03.741Z,3.57
2018-07-22T21:47:31.957Z,3.60
2018-07-22T21:50:00.192Z,3.60
2018-07-22T21:52:28.335Z,3.40
2018-07-22T21:54:56.452Z,3.33
2018-07-22T21:57:24.630Z,3.53
2018-07-22T21:59:52.697Z,3.73
2018-07-22T22:02:20.828Z,3.40
2018-07-22T22:04:48.943Z,3.40
2018-07-22T22:07:17.053Z,3.57
2018-07-22T22:09:45.128Z,3.50
2018-07-22T22:12:13.252Z,3.10
2018-07-22T22:14:41.357Z,3.67
2018-07-22T22:17:09.449Z,2.97
2018-07-22T22:19:37.513Z,3.40
2018-07-22T22:22:05.613Z,3.57
2018-07-22T22:24:33.748Z,3.17
2018-07-22T22:27:01.856Z,3.50
2018-07-22T22:29:29.975Z,2.87
2018-07-22T22:31:58.089Z,2.97
2018-07-22T22:34:26.152Z,3.13
2018-07-22T22:36:54.240Z,3.70
2018-07-22T22:39:22.309Z,3.20
2018-07-22T22:41:50.396Z,3.40
2018-07-22T22:44:18.476Z,3.17
2018-07-22T22:46:46.588Z,3.07
2018-07-22T22:49:14.666Z,3.50
2018-07-22T22:51:42.728Z,2.87
2018-07-22T22:54:10.839Z,4.87
2018-07-22T22:56:38.918Z,4.23
2018-07-22T22:59:14.744Z,3.20
2018-07-22T23:01:42.989Z,3.07
2018-07-22T23:04:11.060Z,3.23
2018-07-22T23:06:39.168Z,3.13
2018-07-22T23:09:09.079Z,3.10
2018-07-22T23:11:37.668Z,2.83
2018-07-22T23:14:06.266Z,2.87
2018-07-22T23:16:34.416Z,3.37
2018-07-22T23:19:02.757Z,2.90
2018-07-22T23:21:31.010Z,3.33
2018-07-22T23:23:59.967Z,2.70
2018-07-22T23:26:28.728Z,3.13
2018-07-22T23:28:56.826Z,2.80
2018-07-22T23:31:24.949Z,3.13
2018-07-22T23:33:53.173Z,3.17
2018-07-22T23:36:21.280Z,3.40
2018-07-22T23:38:49.414Z,2.80
2018-07-22T23:41:17.509Z,3.20
2018-07-22T23:43:45.590Z,3.20
2018-07-22T23:46:13.732Z,3.30
2018-07-22T23:48:41.836Z,3.67
2018-07-22T23:51:09.940Z,3.50
2018-07-22T23:53:38.029Z,3.37
2018-07-22T23:56:06.185Z,2.90
2018-07-22T23:58:34.294Z,3.63
